createdAt,value
2022-08-20T00:01:01.774Z,68.39
2022-08-20T00:02:06.178Z,69.32
2022-08-20T00:03:11.343Z,68.94
2022-08-20T00:04:15.049Z,67.77
2022-08-20T00:05:22.913Z,68.07
2022-08-20T00:06:26.025Z,69.72
2022-08-20T00:07:27.978Z,69.66
2022-08-20T00:08:31.889Z,68.75
2022-08-20T00:09:36.778Z,69.12
2022-08-20T00:10:45.263Z,68.55
2022-08-20T00:11:51.053Z,69.50
2022-08-20T00:12:54.233Z,68.00
2022-08-20T00:13:59.206Z,68.85
2022-08-20T00:15:02.845Z,68.75
2022-08-20T00:16:06.552Z,68.77
2022-08-20T00:17:09.754Z,69.81
2022-08-20T00:18:12.406Z,68.89
2022-08-20T00:19:15.665Z,69.67
2022-08-20T00:20:20.470Z,68.95
2022-08-20T00:21:25.611Z,70.15
2022-08-20T00:22:28.044Z,70.27
2022-08-20T00:23:31.520Z,70.05
2022-08-20T00:24:34.655Z,69.20
2022-08-20T00:25:38.245Z,68.15
2022-08-20T00:26:51.745Z,68.32
2022-08-20T00:27:56.063Z,68.51
2022-08-20T00:28:58.161Z,69.02
2022-08-20T00:30:01.238Z,69.27
2022-08-20T00:31:06.253Z,68.94
2022-08-20T00:32:08.247Z,69.64
2022-08-20T00:33:14.290Z,68.73
2022-08-20T00:34:16.302Z,68.42
2022-08-20T00:35:21.273Z,69.79
2022-08-20T00:36:32.281Z,70.01
2022-08-20T00:37:36.022Z,70.80
2022-08-20T00:38:40.409Z,68.47
2022-08-20T00:39:43.637Z,70.35
2022-08-20T00:40:50.022Z,69.33
2022-08-20T00:41:54.427Z,69.39
2022-08-20T00:42:59.135Z,68.42
2022-08-20T00:44:10.099Z,69.69
2022-08-20T00:45:13.271Z,68.74
2022-08-20T00:46:18.752Z,69.82
2022-08-20T00:47:20.869Z,68.35
2022-08-20T00:48:25.261Z,68.44
2022-08-20T00:49:29.431Z,68.19
2022-08-20T00:50:35.281Z,69.73
2022-08-20T00:51:41.348Z,69.41
2022-08-20T00:52:50.026Z,70.08
2022-08-20T00:53:52.768Z,69.96
2022-08-20T00:54:59.015Z,69.16
2022-08-20T00:56:01.271Z,69.11
2022-08-20T00:57:09.827Z,68.98
2022-08-20T00:58:12.395Z,69.07
2022-08-20T00:59:19.017Z,67.61
2022-08-20T01:00:23.946Z,68.85
2022-08-20T01:01:27.055Z,69.26
2022-08-20T01:02:31.768Z,68.34
2022-08-20T01:03:35.145Z,69.11
2022-08-20T01:04:37.725Z,67.94
2022-08-20T01:05:46.974Z,68.73
2022-08-20T01:06:48.995Z,69.38
2022-08-20T01:07:53.809Z,70.34
2022-08-20T01:08:56.668Z,69.26
2022-08-20T01:10:00.422Z,69.99
2022-08-20T01:11:12.539Z,68.03
2022-08-20T01:12:17.608Z,68.44
2022-08-20T01:13:24.488Z,69.06
2022-08-20T01:14:36.479Z,69.36
2022-08-20T01:15:43.310Z,68.21
2022-08-20T01:16:49.311Z,67.65
2022-08-20T01:17:54.942Z,68.23
2022-08-20T01:18:58.538Z,69.89
2022-08-20T01:20:06.386Z,68.72
2022-08-20T01:21:08.703Z,68.22
2022-08-20T01:22:32.697Z,67.80
2022-08-20T01:23:43.380Z,67.67
2022-08-20T01:24:46.655Z,67.92
2022-08-20T01:25:55.651Z,68.12
2022-08-20T01:27:02.563Z,68.94
2022-08-20T01:28:05.260Z,69.32
2022-08-20T01:29:11.632Z,67.67
2022-08-20T01:30:13.717Z,67.93
2022-08-20T01:31:19.996Z,68.37
2022-08-20T01:32:22.264Z,67.43
2022-08-20T01:33:25.645Z,67.41
2022-08-20T01:34:27.661Z,67.89
2022-08-20T01:35:30.975Z,67.39
2022-08-20T01:36:36.195Z,69.05
2022-08-20T01:37:39.308Z,68.00
2022-08-20T01:38:53.175Z,67.53
2022-08-20T01:39:56.904Z,68.56
2022-08-20T01:41:18.133Z,68.42
2022-08-20T01:42:33.594Z,67.55
2022-08-20T01:43:37.249Z,67.20
2022-08-20T01:44:42.574Z,68.51
2022-08-20T01:45:46.163Z,68.04
2022-08-20T01:46:57.616Z,67.71
2022-08-20T01:48:01.094Z,67.57
2022-08-20T01:49:12.472Z,67.68
2022-08-20T01:50:23.022Z,68.28
2022-08-20T01:51:28.392Z,68.56
2022-08-20T01:52:38.695Z,67.95
2022-08-20T01:53:43.998Z,68.19
2022-08-20T01:54:47.039Z,68.08
2022-08-20T01:55:48.995Z,67.59
2022-08-20T01:56:57.743Z,67.59
2022-08-20T01:58:01.113Z,68.33
2022-08-20T01:59:07.809Z,68.93
2022-08-20T02:00:20.248Z,68.48
2022-08-20T02:01:28.414Z,67.68
2022-08-20T02:02:30.605Z,67.91
2022-08-20T02:03:38.827Z,67.86
2022-08-20T02:04:43.840Z,68.82
2022-08-20T02:05:45.865Z,68.24
2022-08-20T02:06:56.195Z,68.52
2022-08-20T02:08:00.610Z,67.41
2022-08-20T02:09:08.890Z,67.95
2022-08-20T02:10:15.452Z,68.01
2022-08-20T02:11:18.492Z,68.60
2022-08-20T02:12:22.895Z,68.52
2022-08-20T02:13:24.949Z,67.32
2022-08-20T02:14:29.016Z,68.22
2022-08-20T02:15:37.137Z,69.24
2022-08-20T02:16:44.052Z,68.82
2022-08-20T02:17:57.646Z,68.28
2022-08-20T02:19:09.625Z,68.07
2022-08-20T02:20:16.122Z,67.88
2022-08-20T02:21:19.914Z,68.32
2022-08-20T02:22:26.076Z,67.91
2022-08-20T02:23:29.362Z,68.45
2022-08-20T02:24:31.426Z,68.51
2022-08-20T02:25:37.221Z,69.03
2022-08-20T02:26:39.880Z,68.60
2022-08-20T02:27:46.625Z,68.44
2022-08-20T02:28:51.012Z,68.55
2022-08-20T02:29:54.568Z,68.21
2022-08-20T02:30:56.725Z,68.87
2022-08-20T02:32:24.828Z,68.46
2022-08-20T02:33:24.252Z,67.68
2022-08-20T02:34:27.736Z,68.39
2022-08-20T02:35:30.926Z,67.82
2022-08-20T02:36:36.418Z,68.25
2022-08-20T02:37:39.613Z,67.77
2022-08-20T02:38:43.599Z,67.54
2022-08-20T02:39:46.506Z,68.30
2022-08-20T02:40:50.631Z,68.12
2022-08-20T02:41:52.877Z,68.09
2022-08-20T02:42:57.385Z,68.70
2022-08-20T02:43:59.349Z,68.34
2022-08-20T02:45:03.247Z,67.92
2022-08-20T02:46:07.087Z,68.27
2022-08-20T02:47:10.009Z,68.27
2022-08-20T02:48:21.498Z,68.19
2022-08-20T02:49:26.797Z,69.14
2022-08-20T02:50:28.841Z,69.29
2022-08-20T02:51:32.014Z,69.25
2022-08-20T02:52:33.964Z,68.28
2022-08-20T02:53:39.799Z,68.76
2022-08-20T02:54:41.766Z,68.06
2022-08-20T02:55:44.926Z,68.18
2022-08-20T02:56:48.170Z,68.06
2022-08-20T02:57:50.871Z,67.78
2022-08-20T02:58:58.287Z,68.04
2022-08-20T03:00:02.156Z,70.07
2022-08-20T03:01:09.657Z,68.51
2022-08-20T03:02:12.098Z,68.37
2022-08-20T03:03:16.027Z,68.50
2022-08-20T03:04:18.075Z,68.35
2022-08-20T03:05:21.148Z,68.63
2022-08-20T03:06:23.839Z,68.72
2022-08-20T03:07:27.219Z,69.45
2022-08-20T03:08:29.436Z,67.87
2022-08-20T03:09:32.425Z,68.63
2022-08-20T03:10:37.171Z,69.66
2022-08-20T03:11:40.480Z,69.29
2022-08-20T03:12:42.910Z,68.20
2022-08-20T03:13:45.925Z,67.80
2022-08-20T03:14:49.241Z,67.75
2022-08-20T03:15:58.871Z,68.27
2022-08-20T03:17:01.566Z,69.65
2022-08-20T03:18:04.661Z,68.97
2022-08-20T03:19:08.490Z,68.44
2022-08-20T03:20:11.712Z,68.65
2022-08-20T03:21:15.028Z,68.74
2022-08-20T03:22:16.977Z,68.45
2022-08-20T03:23:21.490Z,68.84
2022-08-20T03:24:23.510Z,68.28
2022-08-20T03:25:26.872Z,68.71
2022-08-20T03:26:28.941Z,67.89
2022-08-20T03:27:36.263Z,67.91
2022-08-20T03:28:40.167Z,67.56
2022-08-20T03:29:42.129Z,67.86
2022-08-20T03:30:47.436Z,68.82
2022-08-20T03:31:49.389Z,69.04
2022-08-20T03:32:52.969Z,68.21
2022-08-20T03:33:54.973Z,68.80
2022-08-20T03:34:57.901Z,68.35
2022-08-20T03:36:00.014Z,68.58
2022-08-20T03:37:03.069Z,69.10
2022-08-20T03:38:08.207Z,68.50
2022-08-20T03:39:13.277Z,68.36
2022-08-20T03:40:17.878Z,68.26
2022-08-20T03:41:21.478Z,68.44
2022-08-20T03:42:23.504Z,68.94
2022-08-20T03:43:26.530Z,68.53
2022-08-20T03:44:28.611Z,68.67
2022-08-20T03:45:32.489Z,69.00
2022-08-20T03:46:36.100Z,69.20
2022-08-20T03:47:39.392Z,68.78
2022-08-20T03:48:42.079Z,68.92
2022-08-20T03:49:45.050Z,69.04
2022-08-20T03:50:48.851Z,68.69
2022-08-20T03:51:57.502Z,69.62
2022-08-20T03:53:01.597Z,68.36
2022-08-20T03:54:05.785Z,69.17
2022-08-20T03:55:11.167Z,69.24
2022-08-20T03:56:14.643Z,68.79
2022-08-20T03:57:16.682Z,68.77
2022-08-20T03:58:19.755Z,68.21
2022-08-20T03:59:21.911Z,68.57
2022-08-20T04:00:29.169Z,68.39
2022-08-20T04:01:44.180Z,69.16
2022-08-20T04:02:51.074Z,68.96
2022-08-20T04:03:55.208Z,69.42
2022-08-20T04:04:58.303Z,68.93
2022-08-20T04:06:01.455Z,68.76
2022-08-20T04:07:10.431Z,68.91
2022-08-20T04:08:16.987Z,69.11
2022-08-20T04:09:19.055Z,68.91
2022-08-20T04:10:24.591Z,68.53
2022-08-20T04:11:26.567Z,69.01
2022-08-20T04:12:30.064Z,68.94
2022-08-20T04:13:32.097Z,68.46
2022-08-20T04:14:36.211Z,68.36
2022-08-20T04:15:38.544Z,70.21
2022-08-20T04:16:41.632Z,68.61
2022-08-20T04:17:47.962Z,69.17
2022-08-20T04:19:01.803Z,68.75
2022-08-20T04:20:06.600Z,68.97
2022-08-20T04:21:09.643Z,68.72
2022-08-20T04:22:13.644Z,68.85
2022-08-20T04:23:16.664Z,68.93
2022-08-20T04:24:22.520Z,68.79
2022-08-20T04:25:40.648Z,68.90
2022-08-20T04:26:45.300Z,69.12
2022-08-20T04:27:50.922Z,69.13
2022-08-20T04:28:53.033Z,68.67
2022-08-20T04:29:56.324Z,69.25
2022-08-20T04:31:00.940Z,68.64
2022-08-20T04:32:05.978Z,68.82
2022-08-20T04:33:08.367Z,68.77
2022-08-20T04:34:12.815Z,68.53
2022-08-20T04:35:18.019Z,68.87
2022-08-20T04:36:21.040Z,69.03
2022-08-20T04:37:24.019Z,68.44
2022-08-20T04:38:27.076Z,68.76
2022-08-20T04:40:05.210Z,68.94
2022-08-20T04:41:08.633Z,69.27
2022-08-20T04:42:25.314Z,69.25
2022-08-20T04:43:30.803Z,68.82
2022-08-20T04:44:33.024Z,68.68
2022-08-20T04:45:35.999Z,68.91
2022-08-20T04:46:39.222Z,68.54
2022-08-20T04:47:42.667Z,69.22
2022-08-20T04:48:48.991Z,69.07
2022-08-20T04:50:00.317Z,68.59
2022-08-20T04:51:05.888Z,69.08
2022-08-20T04:52:11.331Z,68.91
2022-08-20T04:53:16.790Z,68.43
2022-08-20T04:54:19.012Z,69.07
2022-08-20T04:55:22.501Z,68.77
2022-08-20T04:56:28.733Z,68.46
2022-08-20T04:57:31.738Z,69.80
2022-08-20T04:58:37.809Z,69.78
2022-08-20T04:59:40.410Z,70.10
2022-08-20T05:00:46.856Z,69.18
2022-08-20T05:01:48.878Z,69.17
2022-08-20T05:02:51.858Z,69.17
2022-08-20T05:03:55.127Z,69.17
2022-08-20T05:04:59.612Z,69.36
2022-08-20T05:06:01.937Z,69.07
2022-08-20T05:07:05.492Z,69.06
2022-08-20T05:08:19.832Z,69.33
2022-08-20T05:09:23.183Z,68.67
2022-08-20T05:10:25.425Z,70.84
2022-08-20T05:11:35.902Z,68.77
2022-08-20T05:12:41.018Z,69.25
2022-08-20T05:13:44.061Z,69.01
2022-08-20T05:14:47.113Z,69.08
2022-08-20T05:15:50.688Z,70.02
2022-08-20T05:16:57.525Z,69.60
2022-08-20T05:18:02.504Z,69.05
2022-08-20T05:19:05.931Z,69.50
2022-08-20T05:20:12.395Z,68.70
2022-08-20T05:21:15.605Z,69.79
2022-08-20T05:22:18.443Z,69.40
2022-08-20T05:23:23.911Z,69.79
2022-08-20T05:24:25.997Z,68.51
2022-08-20T05:25:30.431Z,69.10
2022-08-20T05:26:33.456Z,69.17
2022-08-20T05:27:36.487Z,69.86
2022-08-20T05:28:54.059Z,68.85
2022-08-20T05:30:05.757Z,70.59
2022-08-20T05:31:09.547Z,69.65
2022-08-20T05:32:12.807Z,69.01
2022-08-20T05:33:18.891Z,69.09
2022-08-20T05:34:21.796Z,68.68
2022-08-20T05:35:25.182Z,69.05
2022-08-20T05:36:28.186Z,68.76
2022-08-20T05:37:30.226Z,69.02
2022-08-20T05:38:37.179Z,68.60
2022-08-20T05:39:39.209Z,68.70
2022-08-20T05:40:43.871Z,69.94
2022-08-20T05:41:49.239Z,69.18
2022-08-20T05:42:51.422Z,70.29
2022-08-20T05:43:54.473Z,70.14
2022-08-20T05:44:56.560Z,69.15
2022-08-20T05:45:59.580Z,70.22
2022-08-20T05:47:04.181Z,70.14
2022-08-20T05:48:08.114Z,68.68
2022-08-20T05:49:11.901Z,70.58
2022-08-20T05:50:19.870Z,69.30
2022-08-20T05:51:26.969Z,70.65
2022-08-20T05:52:30.373Z,68.95
2022-08-20T05:53:34.396Z,70.43
2022-08-20T05:54:38.295Z,69.97
2022-08-20T05:55:41.548Z,69.03
2022-08-20T05:56:43.711Z,68.74
2022-08-20T05:57:46.990Z,68.09
2022-08-20T05:58:48.955Z,69.65
2022-08-20T05:59:55.312Z,70.07
2022-08-20T06:00:59.030Z,69.27
2022-08-20T06:02:02.206Z,68.84
2022-08-20T06:03:23.213Z,68.80
2022-08-20T06:04:25.169Z,70.37
2022-08-20T06:05:27.499Z,70.07
2022-08-20T06:06:46.341Z,69.69
2022-08-20T06:07:50.700Z,70.50
2022-08-20T06:08:57.771Z,70.06
2022-08-20T06:10:00.793Z,69.69
2022-08-20T06:11:04.549Z,70.35
2022-08-20T06:12:09.081Z,69.17
2022-08-20T06:13:13.744Z,70.32
2022-08-20T06:14:16.801Z,70.26
2022-08-20T06:15:20.630Z,69.61
2022-08-20T06:16:29.010Z,71.18
2022-08-20T06:17:39.324Z,71.10
2022-08-20T06:18:42.740Z,70.47
2022-08-20T06:19:46.961Z,72.28
2022-08-20T06:20:50.488Z,71.28
2022-08-20T06:21:53.953Z,70.42
2022-08-20T06:22:57.799Z,71.00
2022-08-20T06:24:00.467Z,71.08
2022-08-20T06:25:06.722Z,70.94
2022-08-20T06:26:09.304Z,69.26
2022-08-20T06:27:15.731Z,69.44
2022-08-20T06:28:19.096Z,69.03
2022-08-20T06:29:21.103Z,69.43
2022-08-20T06:30:24.271Z,71.02
2022-08-20T06:31:27.396Z,69.13
2022-08-20T06:32:32.697Z,70.83
2022-08-20T06:33:34.985Z,70.96
2022-08-20T06:34:38.046Z,70.14
2022-08-20T06:35:54.906Z,71.23
2022-08-20T06:36:59.370Z,69.97
2022-08-20T06:38:03.660Z,69.29
2022-08-20T06:39:05.645Z,71.06
2022-08-20T06:40:12.307Z,71.03
2022-08-20T06:41:14.389Z,70.97
2022-08-20T06:42:21.012Z,70.31
2022-08-20T06:43:24.214Z,69.89
2022-08-20T06:44:28.284Z,70.88
2022-08-20T06:45:34.003Z,72.46
2022-08-20T06:46:36.626Z,70.57
2022-08-20T06:47:41.812Z,72.82
2022-08-20T06:48:43.723Z,72.81
2022-08-20T06:49:47.522Z,70.21
2022-08-20T06:50:50.871Z,69.89
2022-08-20T06:51:53.011Z,71.03
2022-08-20T06:52:57.945Z,72.87
2022-08-20T06:54:00.353Z,69.63
2022-08-20T06:55:03.400Z,70.43
2022-08-20T06:56:05.830Z,71.62
2022-08-20T06:57:08.816Z,71.21
2022-08-20T06:58:30.492Z,71.26
2022-08-20T06:59:35.333Z,70.51
2022-08-20T07:00:40.619Z,72.05
2022-08-20T07:01:43.682Z,71.27
2022-08-20T07:02:47.170Z,71.31
2022-08-20T07:03:55.612Z,70.90
2022-08-20T07:04:58.095Z,70.94
2022-08-20T07:06:01.201Z,72.84
2022-08-20T07:07:04.225Z,72.70
2022-08-20T07:08:09.733Z,73.25
2022-08-20T07:09:11.756Z,71.13
2022-08-20T07:10:16.847Z,72.13
2022-08-20T07:11:24.956Z,73.67
2022-08-20T07:12:30.571Z,74.40
2022-08-20T07:13:32.871Z,73.13
2022-08-20T07:14:35.993Z,71.38
2022-08-20T07:15:39.696Z,72.30
2022-08-20T07:16:41.643Z,73.56
2022-08-20T07:17:50.684Z,72.74
2022-08-20T07:18:53.733Z,73.01
2022-08-20T07:19:55.956Z,71.77
2022-08-20T07:20:59.938Z,72.33
2022-08-20T07:22:02.109Z,71.64
2022-08-20T07:23:12.172Z,74.29
2022-08-20T07:24:15.296Z,73.17
2022-08-20T07:25:20.500Z,74.33
2022-08-20T07:26:24.803Z,73.79
2022-08-20T07:27:26.931Z,72.68
2022-08-20T07:28:31.985Z,71.81
2022-08-20T07:29:49.921Z,73.65
2022-08-20T07:31:13.677Z,72.37
2022-08-20T07:32:36.848Z,72.91
2022-08-20T07:33:40.726Z,71.74
2022-08-20T07:34:43.665Z,70.58
2022-08-20T07:35:48.977Z,73.23
2022-08-20T07:36:51.035Z,73.20
2022-08-20T07:37:55.199Z,73.33
2022-08-20T07:38:58.824Z,73.80
2022-08-20T07:40:02.394Z,72.68
2022-08-20T07:41:08.018Z,72.10
2022-08-20T07:42:10.127Z,72.40
2022-08-20T07:43:14.208Z,71.92
2022-08-20T07:44:17.467Z,73.61
2022-08-20T07:45:20.997Z,72.87
2022-08-20T07:46:24.828Z,73.13
2022-08-20T07:47:36.081Z,73.90
2022-08-20T07:48:41.870Z,72.86
2022-08-20T07:49:44.037Z,71.18
2022-08-20T07:50:50.058Z,73.53
2022-08-20T07:51:52.048Z,73.29
2022-08-20T07:52:55.159Z,72.38
2022-08-20T07:53:59.653Z,73.38
2022-08-20T07:55:02.973Z,72.17
2022-08-20T07:56:08.361Z,73.07
2022-08-20T07:57:12.195Z,72.96
2022-08-20T07:58:17.239Z,73.26
2022-08-20T07:59:20.693Z,72.13
2022-08-20T08:00:26.004Z,72.23
2022-08-20T08:01:31.557Z,71.23
2022-08-20T08:02:34.163Z,71.70
2022-08-20T08:03:48.938Z,72.97
2022-08-20T08:04:53.594Z,71.51
2022-08-20T08:05:56.735Z,73.26
2022-08-20T08:07:00.537Z,72.24
2022-08-20T08:08:07.264Z,72.08
2022-08-20T08:09:15.493Z,71.83
2022-08-20T08:10:23.309Z,72.61
2022-08-20T08:11:25.287Z,73.52
2022-08-20T08:12:36.499Z,72.79
2022-08-20T08:13:41.145Z,72.25
2022-08-20T08:14:47.130Z,72.39
2022-08-20T08:15:50.390Z,71.64
2022-08-20T08:16:54.867Z,71.61
2022-08-20T08:18:00.707Z,71.69
2022-08-20T08:19:07.610Z,72.23
2022-08-20T08:20:12.231Z,71.69
2022-08-20T08:21:16.433Z,72.02
2022-08-20T08:22:21.099Z,71.75
2022-08-20T08:23:24.736Z,72.56
2022-08-20T08:24:36.396Z,72.79
2022-08-20T08:25:38.846Z,71.16
2022-08-20T08:26:41.824Z,70.70
2022-08-20T08:27:45.671Z,70.81
2022-08-20T08:28:49.134Z,72.52
2022-08-20T08:29:52.144Z,72.84
2022-08-20T08:30:54.137Z,70.97
2022-08-20T08:31:57.767Z,70.44
2022-08-20T08:33:19.501Z,71.10
2022-08-20T08:34:25.073Z,72.16
2022-08-20T08:35:27.026Z,72.92
2022-08-20T08:36:30.203Z,72.04
2022-08-20T08:37:33.708Z,71.88
2022-08-20T08:38:40.241Z,72.29
2022-08-20T08:39:43.657Z,73.23
2022-08-20T08:40:48.316Z,72.43
2022-08-20T08:41:57.235Z,72.17
2022-08-20T08:43:02.849Z,71.33
2022-08-20T08:44:10.760Z,70.82
2022-08-20T08:45:16.885Z,72.17
2022-08-20T08:46:23.728Z,71.58
2022-08-20T08:47:29.339Z,72.11
2022-08-20T08:48:36.445Z,72.59
2022-08-20T08:49:38.538Z,72.62
2022-08-20T08:50:53.420Z,73.96
2022-08-20T08:52:01.947Z,73.24
2022-08-20T08:53:05.951Z,71.26
2022-08-20T08:54:17.685Z,71.84
2022-08-20T08:55:22.981Z,71.51
2022-08-20T08:56:29.547Z,74.14
2022-08-20T08:57:32.764Z,73.69
2022-08-20T08:58:35.351Z,73.49
2022-08-20T09:00:02.438Z,74.01
2022-08-20T09:01:06.954Z,73.42
2022-08-20T09:02:20.441Z,73.79
2022-08-20T09:03:28.207Z,74.53
2022-08-20T09:04:34.779Z,75.50
2022-08-20T09:05:41.324Z,74.99
2022-08-20T09:06:44.237Z,74.64
2022-08-20T09:07:51.168Z,74.02
2022-08-20T09:09:01.177Z,74.41
2022-08-20T09:10:04.046Z,74.54
2022-08-20T09:11:10.541Z,73.82
2022-08-20T09:12:14.990Z,74.03
2022-08-20T09:13:18.090Z,74.97
2022-08-20T09:14:20.594Z,74.38
2022-08-20T09:15:23.724Z,74.09
2022-08-20T09:16:27.979Z,74.07
2022-08-20T09:17:37.221Z,73.92
2022-08-20T09:18:40.485Z,73.99
2022-08-20T09:19:42.437Z,74.95
2022-08-20T09:20:45.381Z,74.89
2022-08-20T09:21:47.380Z,73.46
2022-08-20T09:22:50.345Z,73.55
2022-08-20T09:23:53.875Z,75.06
2022-08-20T09:24:57.074Z,74.82
2022-08-20T09:25:59.317Z,74.92
2022-08-20T09:27:04.293Z,74.46
2022-08-20T09:28:06.281Z,75.29
2022-08-20T09:29:09.890Z,75.57
2022-08-20T09:30:13.129Z,74.47
2022-08-20T09:31:16.858Z,73.90
2022-08-20T09:32:23.632Z,74.83
2022-08-20T09:33:27.258Z,75.36
2022-08-20T09:34:29.274Z,76.37
2022-08-20T09:35:32.542Z,76.04
2022-08-20T09:36:35.439Z,75.04
2022-08-20T09:37:39.658Z,74.23
2022-08-20T09:38:41.704Z,75.37
2022-08-20T09:39:45.054Z,75.73
2022-08-20T09:40:47.415Z,75.50
2022-08-20T09:41:50.344Z,75.90
2022-08-20T09:42:53.927Z,76.03
2022-08-20T09:43:56.955Z,75.67
2022-08-20T09:45:11.506Z,75.70
2022-08-20T09:46:13.710Z,75.84
2022-08-20T09:47:17.404Z,75.00
2022-08-20T09:48:20.509Z,75.22
2022-08-20T09:49:31.701Z,75.75
2022-08-20T09:50:36.968Z,75.66
2022-08-20T09:51:39.377Z,75.60
2022-08-20T09:52:44.238Z,76.18
2022-08-20T09:53:46.584Z,75.43
2022-08-20T09:54:50.437Z,75.76
2022-08-20T09:55:55.666Z,75.42
2022-08-20T09:57:00.242Z,74.45
2022-08-20T09:58:08.274Z,74.10
2022-08-20T09:59:11.303Z,75.38
2022-08-20T10:00:14.485Z,75.03
2022-08-20T10:01:20.564Z,74.57
2022-08-20T10:02:22.674Z,75.45
2022-08-20T10:03:26.112Z,76.44
2022-08-20T10:04:28.277Z,76.12
2022-08-20T10:05:31.663Z,76.00
2022-08-20T10:06:39.596Z,75.92
2022-08-20T10:07:43.265Z,75.19
2022-08-20T10:08:45.642Z,75.55
2022-08-20T10:09:48.793Z,75.60
2022-08-20T10:10:51.959Z,75.79
2022-08-20T10:11:53.936Z,75.32
2022-08-20T10:12:56.893Z,75.71
2022-08-20T10:14:00.271Z,75.24
2022-08-20T10:15:03.286Z,75.23
2022-08-20T10:16:05.810Z,75.63
2022-08-20T10:17:09.002Z,75.96
2022-08-20T10:18:12.303Z,75.60
2022-08-20T10:19:14.536Z,75.34
2022-08-20T10:20:18.397Z,75.17
2022-08-20T10:21:20.822Z,75.62
2022-08-20T10:22:24.479Z,76.22
2022-08-20T10:23:26.529Z,75.89
2022-08-20T10:24:30.105Z,76.11
2022-08-20T10:25:33.581Z,76.27
2022-08-20T10:26:35.583Z,76.66
2022-08-20T10:27:39.825Z,75.41
2022-08-20T10:28:42.089Z,75.47
2022-08-20T10:29:47.095Z,75.89
2022-08-20T10:30:49.283Z,76.30
2022-08-20T10:31:52.870Z,75.83
2022-08-20T10:32:55.031Z,75.77
2022-08-20T10:33:58.585Z,75.41
2022-08-20T10:35:00.711Z,74.55
2022-08-20T10:36:07.724Z,75.38
2022-08-20T10:37:10.186Z,76.09
2022-08-20T10:38:13.369Z,75.63
2022-08-20T10:39:16.269Z,75.39
2022-08-20T10:40:19.367Z,75.72
2022-08-20T10:41:22.417Z,75.22
2022-08-20T10:42:24.472Z,75.34
2022-08-20T10:43:28.293Z,74.50
2022-08-20T10:44:31.301Z,74.79
2022-08-20T10:45:35.667Z,75.36
2022-08-20T10:46:38.489Z,76.11
2022-08-20T10:47:42.295Z,76.17
2022-08-20T10:48:44.422Z,75.99
2022-08-20T10:49:48.262Z,75.55
2022-08-20T10:50:51.581Z,76.00
2022-08-20T10:51:53.577Z,76.25
2022-08-20T10:52:56.629Z,76.01
2022-08-20T10:53:58.764Z,76.72
2022-08-20T10:55:04.233Z,76.41
2022-08-20T10:56:06.931Z,76.13
2022-08-20T10:57:15.340Z,76.92
2022-08-20T10:58:18.358Z,76.50
2022-08-20T10:59:22.213Z,76.61
2022-08-20T11:00:25.319Z,76.20
2022-08-20T11:01:32.807Z,76.29
2022-08-20T11:02:37.805Z,76.01
2022-08-20T11:03:40.016Z,76.18
2022-08-20T11:04:43.384Z,76.22
2022-08-20T11:05:45.926Z,76.33
2022-08-20T11:06:49.309Z,76.13
2022-08-20T11:07:56.161Z,75.52
2022-08-20T11:08:59.826Z,76.01
2022-08-20T11:10:02.134Z,75.84
2022-08-20T11:11:06.906Z,76.01
2022-08-20T11:12:09.677Z,76.22
2022-08-20T11:13:12.725Z,75.57
2022-08-20T11:14:14.700Z,75.04
2022-08-20T11:15:18.111Z,75.49
2022-08-20T11:16:21.125Z,76.04
2022-08-20T11:17:28.362Z,75.68
2022-08-20T11:18:32.972Z,76.54
2022-08-20T11:19:40.250Z,76.08
2022-08-20T11:20:42.242Z,76.23
2022-08-20T11:21:45.198Z,76.05
2022-08-20T11:22:47.583Z,75.89
2022-08-20T11:23:50.625Z,76.13
2022-08-20T11:24:52.931Z,76.21
2022-08-20T11:25:56.314Z,76.51
2022-08-20T11:26:58.964Z,76.32
2022-08-20T11:28:02.962Z,76.29
2022-08-20T11:29:05.342Z,76.77
2022-08-20T11:30:12.663Z,76.39
2022-08-20T11:31:15.695Z,76.49
2022-08-20T11:32:18.356Z,76.61
2022-08-20T11:33:23.134Z,76.67
2022-08-20T11:34:25.282Z,76.34
2022-08-20T11:35:49.448Z,76.12
2022-08-20T11:36:53.467Z,76.56
2022-08-20T11:37:56.864Z,76.66
2022-08-20T11:39:00.398Z,76.18
2022-08-20T11:40:02.984Z,76.06
2022-08-20T11:41:06.332Z,76.14
2022-08-20T11:42:08.560Z,75.99
2022-08-20T11:43:16.232Z,75.87
2022-08-20T11:44:21.598Z,76.04
2022-08-20T11:45:23.705Z,76.85
2022-08-20T11:46:28.702Z,76.91
2022-08-20T11:47:33.626Z,76.40
2022-08-20T11:48:39.647Z,76.25
2022-08-20T11:49:41.663Z,76.61
2022-08-20T11:50:45.247Z,75.99
2022-08-20T11:51:49.798Z,76.35
2022-08-20T11:52:53.220Z,76.62
2022-08-20T11:53:56.272Z,76.12
2022-08-20T11:55:00.391Z,76.34
2022-08-20T11:56:03.838Z,75.94
2022-08-20T11:57:06.115Z,76.30
2022-08-20T11:58:09.255Z,76.11
2022-08-20T11:59:11.678Z,76.17
2022-08-20T12:00:19.995Z,76.30
2022-08-20T12:01:34.462Z,76.17
2022-08-20T12:02:37.711Z,75.69
2022-08-20T12:03:42.136Z,76.01
2022-08-20T12:04:44.755Z,75.45
2022-08-20T12:05:48.195Z,75.64
2022-08-20T12:06:50.817Z,75.99
2022-08-20T12:07:54.021Z,75.94
2022-08-20T12:08:57.088Z,76.45
2022-08-20T12:09:59.299Z,75.76
2022-08-20T12:11:03.711Z,75.78
2022-08-20T12:12:06.933Z,75.92
2022-08-20T12:13:09.980Z,75.79
2022-08-20T12:14:13.473Z,75.63
2022-08-20T12:15:15.460Z,75.56
2022-08-20T12:16:19.777Z,75.88
2022-08-20T12:17:23.978Z,76.09
2022-08-20T12:18:27.234Z,75.48
2022-08-20T12:19:30.582Z,76.14
2022-08-20T12:20:33.697Z,75.52
2022-08-20T12:21:36.610Z,75.81
2022-08-20T12:22:39.062Z,75.08
2022-08-20T12:23:42.047Z,74.96
2022-08-20T12:24:44.159Z,75.35
2022-08-20T12:25:49.018Z,75.35
2022-08-20T12:26:50.966Z,75.04
2022-08-20T12:27:54.216Z,75.07
2022-08-20T12:28:56.571Z,75.06
2022-08-20T12:30:01.456Z,75.55
2022-08-20T12:31:05.257Z,75.74
2022-08-20T12:32:08.236Z,75.44
2022-08-20T12:33:11.449Z,75.66
2022-08-20T12:34:13.642Z,75.68
2022-08-20T12:35:21.666Z,75.84
2022-08-20T12:36:24.642Z,75.43
2022-08-20T12:37:29.218Z,75.40
2022-08-20T12:38:32.193Z,75.45
2022-08-20T12:39:35.434Z,75.10
2022-08-20T12:40:38.701Z,74.97
2022-08-20T12:41:40.691Z,75.34
2022-08-20T12:42:45.688Z,75.43
2022-08-20T12:43:48.815Z,74.88
2022-08-20T12:44:50.832Z,75.23
2022-08-20T12:45:54.180Z,74.99
2022-08-20T12:47:06.523Z,75.06
2022-08-20T12:48:12.902Z,74.84
2022-08-20T12:49:14.910Z,74.99
2022-08-20T12:50:21.483Z,75.42
2022-08-20T12:51:23.463Z,75.28
2022-08-20T12:52:26.910Z,75.26
2022-08-20T12:53:30.117Z,74.99
2022-08-20T12:54:32.293Z,75.22
2022-08-20T12:55:36.014Z,74.42
2022-08-20T12:56:38.219Z,74.43
2022-08-20T12:57:45.555Z,74.76
2022-08-20T12:58:47.568Z,74.72
2022-08-20T12:59:50.754Z,75.23
2022-08-20T13:00:53.976Z,74.57
2022-08-20T13:01:56.795Z,75.00
2022-08-20T13:03:02.744Z,74.95
2022-08-20T13:04:04.951Z,75.25
2022-08-20T13:05:09.108Z,75.20
2022-08-20T13:06:12.959Z,75.27
2022-08-20T13:07:16.883Z,74.83
2022-08-20T13:08:19.658Z,74.92
2022-08-20T13:09:23.025Z,74.93
2022-08-20T13:10:27.987Z,75.12
2022-08-20T13:11:29.968Z,75.45
2022-08-20T13:12:33.505Z,74.96
2022-08-20T13:13:35.611Z,75.06
2022-08-20T13:14:40.055Z,74.87
2022-08-20T13:15:42.059Z,75.16
2022-08-20T13:16:45.184Z,75.04
2022-08-20T13:17:52.311Z,75.24
2022-08-20T13:18:55.493Z,74.70
2022-08-20T13:19:57.424Z,74.67
2022-08-20T13:21:00.499Z,74.81
2022-08-20T13:22:04.458Z,75.05
2022-08-20T13:23:08.012Z,75.26
2022-08-20T13:24:12.243Z,75.03
2022-08-20T13:25:15.796Z,75.06
2022-08-20T13:26:18.993Z,74.65
2022-08-20T13:27:22.672Z,74.90
2022-08-20T13:28:25.986Z,74.79
2022-08-20T13:29:28.011Z,75.00
2022-08-20T13:30:31.710Z,74.87
2022-08-20T13:31:33.893Z,74.54
2022-08-20T13:32:36.940Z,74.50
2022-08-20T13:33:40.209Z,74.52
2022-08-20T13:34:43.647Z,73.65
2022-08-20T13:35:46.774Z,73.96
2022-08-20T13:36:48.727Z,73.96
2022-08-20T13:37:53.425Z,73.94
2022-08-20T13:38:55.407Z,73.78
2022-08-20T13:39:59.759Z,73.35
2022-08-20T13:41:03.490Z,73.48
2022-08-20T13:42:06.298Z,73.25
2022-08-20T13:43:11.899Z,73.14
2022-08-20T13:44:14.159Z,73.65
2022-08-20T13:45:17.530Z,73.28
2022-08-20T13:46:19.591Z,73.64
2022-08-20T13:47:26.495Z,74.33
2022-08-20T13:48:29.187Z,73.97
2022-08-20T13:49:33.835Z,73.05
2022-08-20T13:50:36.876Z,73.43
2022-08-20T13:51:40.058Z,73.10
2022-08-20T13:52:43.216Z,73.19
2022-08-20T13:53:47.649Z,73.19